Time;durP1;ratioP1;P1;durP2;ratioP2;P2;SDS_P1;SDS_P2;PMS_P1;PMS_P2;Temp;Humidity;BMP_temperature;BMP_pressure;BME280_temperature;BME280_humidity;BME280_pressure;Samples;Min_cycle;Max_cycle;Signal;HPM_P1;HPM_P2
2023/01/17 00:01:45;;;;;;;0.90;0.90;;;2.70;99.90;;;;;;5068606;28;22050;-30
2023/01/17 00:09:51;;;;;;;0.70;0.70;;;2.80;99.90;;;;;;5068600;28;20096;-36
2023/01/17 00:12:19;;;;;;;0.98;0.98;;;2.70;99.90;;;;;;5072413;28;20028;-35
2023/01/17 00:14:44;;;;;;;0.60;0.60;;;2.60;99.90;;;;;;5083760;28;20020;-32
2023/01/17 00:17:10;;;;;;;0.65;0.65;;;2.70;99.90;;;;;;5055738;28;20036;-33
2023/01/17 01:34:21;;;;;;;0.90;0.90;;;2.10;99.90;;;;;;5068883;28;20333;-34
2023/01/17 01:36:47;;;;;;;;;;;2.20;99.90;;;;;;5079623;28;20093;-34
2023/01/17 01:39:13;;;;;;;0.85;0.85;;;2.10;99.90;;;;;;5078671;28;20006;-36
2023/01/17 01:41:38;;;;;;;0.95;0.95;;;2.10;99.90;;;;;;5084629;28;20036;-31
2023/01/17 01:44:24;;;;;;;0.80;0.80;;;2.20;99.90;;;;;;5071067;28;20028;-33
2023/01/17 01:46:50;;;;;;;1.17;0.80;;;2.10;99.90;;;;;;5070635;28;20036;-32
2023/01/17 01:49:24;;;;;;;0.95;0.95;;;2.20;99.90;;;;;;5071118;28;20036;-34
2023/01/17 01:51:54;;;;;;;0.70;0.70;;;2.20;99.90;;;;;;5079585;28;20016;-33
2023/01/17 01:54:27;;;;;;;0.80;0.80;;;2.10;99.90;;;;;;5069159;28;20389;-32
2023/01/17 01:56:55;;;;;;;0.93;0.85;;;2.10;99.90;;;;;;5076190;28;20495;-35
2023/01/17 01:59:22;;;;;;;1.10;1.00;;;2.10;99.90;;;;;;5067237;28;20039;-35
2023/01/17 02:01:50;;;;;;;0.80;0.80;;;2.10;99.90;;;;;;5082739;28;20417;-39
2023/01/17 02:04:17;;;;;;;0.77;0.77;;;2.10;99.90;;;;;;5068090;28;20029;-37
2023/01/17 02:06:47;;;;;;;0.80;0.80;;;2.00;99.90;;;;;;5069810;28;20036;-35
2023/01/17 02:09:15;;;;;;;1.00;1.00;;;2.10;99.90;;;;;;5079242;28;20066;-37
2023/01/17 02:11:42;;;;;;;1.27;0.80;;;2.00;99.90;;;;;;5081098;28;20048;-36
2023/01/17 02:14:13;;;;;;;0.88;0.88;;;2.00;99.90;;;;;;5080401;28;20032;-36
2023/01/17 02:16:44;;;;;;;0.90;0.90;;;2.00;99.90;;;;;;5059345;28;20424;-37
2023/01/17 02:19:40;;;;;;;0.90;0.90;;;2.10;99.90;;;;;;5073996;28;20024;-37
2023/01/17 02:22:09;;;;;;;0.80;0.80;;;2.00;99.90;;;;;;5071018;28;20020;-38
2023/01/17 02:24:51;;;;;;;0.90;0.90;;;2.00;99.90;;;;;;5070115;28;20031;-39
2023/01/17 02:27:28;;;;;;;0.98;0.98;;;1.90;99.90;;;;;;5057922;28;20054;-38
2023/01/17 02:30:27;;;;;;;0.70;0.70;;;1.90;99.90;;;;;;5082951;28;20027;-40
2023/01/17 02:33:01;;;;;;;0.77;0.77;;;1.80;99.90;;;;;;5080959;28;20565;-38
2023/01/17 02:35:39;;;;;;;0.70;0.70;;;1.90;99.90;;;;;;5078296;28;20532;-38
2023/01/17 02:38:11;;;;;;;2.77;0.90;;;1.80;99.90;;;;;;5079732;28;20178;-39
2023/01/17 02:40:50;;;;;;;0.90;0.90;;;1.80;99.90;;;;;;5092811;28;20024;-37
2023/01/17 02:43:17;;;;;;;0.90;0.90;;;1.80;99.90;;;;;;5065055;28;20078;-39
2023/01/17 02:45:44;;;;;;;0.90;0.90;;;1.80;99.90;;;;;;5085316;28;20077;-37
2023/01/17 02:48:13;;;;;;;0.80;0.80;;;1.70;99.90;;;;;;5076176;28;20043;-39
2023/01/17 02:51:07;;;;;;;0.80;0.80;;;1.70;99.90;;;;;;5082645;28;20795;-38
2023/01/17 02:53:57;;;;;;;0.80;0.80;;;1.70;99.90;;;;;;5080747;28;20056;-39
2023/01/17 02:56:37;;;;;;;0.70;0.70;;;1.70;99.90;;;;;;5079764;28;20043;-39
2023/01/17 02:59:17;;;;;;;0.80;0.80;;;1.60;99.90;;;;;;5078783;28;20036;-36
2023/01/17 03:02:03;;;;;;;0.82;0.82;;;1.60;99.90;;;;;;5080679;28;20040;-38
2023/01/17 03:04:47;;;;;;;0.80;0.80;;;1.50;99.90;;;;;;5081361;28;20119;-39
2023/01/17 03:07:17;;;;;;;1.00;0.98;;;1.50;99.90;;;;;;5076274;28;20143;-34
2023/01/17 03:09:47;;;;;;;2.78;0.90;;;1.50;99.90;;;;;;5060580;28;20052;-37
2023/01/17 03:12:13;;;;;;;0.90;0.90;;;1.40;99.90;;;;;;5069434;28;20128;-34
2023/01/17 03:14:38;;;;;;;1.00;1.00;;;1.30;99.90;;;;;;5063197;28;20111;-38
2023/01/17 03:17:04;;;;;;;0.90;0.90;;;1.40;99.90;;;;;;5055789;28;20475;-38
2023/01/17 03:19:30;;;;;;;0.80;0.80;;;1.40;99.90;;;;;;5055546;28;20498;-40
2023/01/17 03:21:56;;;;;;;0.90;0.90;;;1.40;99.90;;;;;;5053185;28;20039;-39
2023/01/17 03:24:22;;;;;;;0.82;0.82;;;1.50;99.90;;;;;;5053378;28;20047;-37
2023/01/17 03:26:47;;;;;;;0.90;0.90;;;1.40;99.90;;;;;;5061040;28;20032;-39
2023/01/17 03:29:15;;;;;;;0.90;0.90;;;1.40;99.90;;;;;;5061116;28;20537;-39
2023/01/17 03:31:40;;;;;;;0.95;0.95;;;1.40;99.90;;;;;;5054122;28;20120;-37
2023/01/17 03:34:06;;;;;;;0.90;0.90;;;1.40;99.90;;;;;;5063885;28;20183;-40
2023/01/17 03:36:32;;;;;;;0.90;0.90;;;1.40;99.90;;;;;;5056343;28;20056;-39
2023/01/17 03:38:57;;;;;;;1.25;1.15;;;1.50;99.90;;;;;;5068509;28;20028;-39
2023/01/17 03:41:23;;;;;;;0.90;0.90;;;1.50;99.90;;;;;;5049925;28;20028;-39
2023/01/17 03:43:48;;;;;;;0.80;0.80;;;1.50;99.90;;;;;;5065604;28;20037;-39
2023/01/17 03:46:26;;;;;;;1.00;1.00;;;1.50;99.90;;;;;;5064124;28;20111;-36
2023/01/17 03:48:51;;;;;;;1.00;1.00;;;1.50;99.90;;;;;;5049762;28;20041;-40
2023/01/17 03:51:17;;;;;;;0.90;0.90;;;1.50;99.90;;;;;;5048708;28;20579;-39
2023/01/17 03:53:45;;;;;;;0.80;0.80;;;1.50;99.90;;;;;;5071320;28;20027;-39
2023/01/17 03:56:11;;;;;;;1.00;1.00;;;1.40;99.90;;;;;;5065426;28;20024;-39
2023/01/17 03:58:37;;;;;;;2.97;0.98;;;1.50;99.90;;;;;;5076837;28;20388;-40
2023/01/17 04:01:03;;;;;;;1.45;1.38;;;1.50;99.90;;;;;;5061112;28;20037;-40
2023/01/17 04:03:28;;;;;;;1.02;1.02;;;1.40;99.90;;;;;;5071141;28;20085;-39
2023/01/17 04:05:54;;;;;;;0.95;0.95;;;1.40;99.90;;;;;;5059045;28;20377;-39
2023/01/17 04:08:20;;;;;;;0.80;0.80;;;1.40;99.90;;;;;;5068259;28;20055;-40
2023/01/17 04:10:45;;;;;;;0.90;0.90;;;1.40;99.90;;;;;;5071363;28;20037;-39
2023/01/17 04:13:12;;;;;;;0.80;0.80;;;1.40;99.90;;;;;;5071076;28;20028;-38
2023/01/17 04:15:38;;;;;;;1.10;0.98;;;1.30;99.90;;;;;;5076784;28;20489;-36
2023/01/17 04:18:05;;;;;;;3.90;1.13;;;1.30;99.90;;;;;;5080247;28;20023;-39
2023/01/17 04:20:36;;;;;;;0.75;0.75;;;1.30;99.90;;;;;;5084402;28;20500;-38
2023/01/17 04:23:02;;;;;;;2.15;0.90;;;1.20;99.90;;;;;;5083752;28;20485;-39
2023/01/17 04:25:29;;;;;;;0.80;0.80;;;1.20;99.90;;;;;;5074421;28;20104;-38
2023/01/17 04:27:56;;;;;;;0.80;0.80;;;1.20;99.90;;;;;;5080373;28;20063;-39
2023/01/17 04:30:22;;;;;;;0.80;0.80;;;1.20;99.90;;;;;;5072898;28;20405;-38
2023/01/17 04:32:47;;;;;;;0.80;0.80;;;1.30;99.90;;;;;;5075248;28;20043;-38
2023/01/17 04:35:13;;;;;;;1.13;0.90;;;1.30;99.90;;;;;;5081102;28;20028;-39
2023/01/17 04:37:39;;;;;;;0.70;0.70;;;1.30;99.90;;;;;;5088707;28;20020;-38
2023/01/17 04:40:05;;;;;;;1.00;1.00;;;1.20;99.90;;;;;;5078997;28;20025;-40
2023/01/17 04:42:31;;;;;;;0.80;0.80;;;1.20;99.90;;;;;;5070688;28;20136;-39
2023/01/17 04:44:56;;;;;;;0.70;0.70;;;1.20;99.90;;;;;;5081159;28;20103;-36
2023/01/17 04:47:22;;;;;;;0.80;0.80;;;1.10;99.90;;;;;;5083134;28;20040;-38
2023/01/17 04:49:47;;;;;;;0.95;0.95;;;1.00;99.90;;;;;;5079514;28;20131;-38
2023/01/17 04:52:14;;;;;;;0.77;0.77;;;1.00;99.90;;;;;;5094566;28;20024;-38
2023/01/17 04:54:40;;;;;;;1.00;1.00;;;1.00;99.90;;;;;;5074231;28;20107;-36
2023/01/17 04:57:06;;;;;;;0.90;0.90;;;1.10;99.90;;;;;;5080325;28;20024;-39
2023/01/17 04:59:31;;;;;;;0.82;0.82;;;1.10;99.90;;;;;;5085522;28;20068;-39
2023/01/17 05:01:57;;;;;;;1.00;1.00;;;1.10;99.90;;;;;;5083338;28;20147;-38
2023/01/17 05:04:23;;;;;;;1.02;1.02;;;1.10;99.90;;;;;;5089680;28;20401;-36
2023/01/17 05:06:48;;;;;;;1.05;1.05;;;1.20;99.90;;;;;;5052266;28;21109;-36
2023/01/17 05:09:14;;;;;;;1.00;1.00;;;1.10;99.90;;;;;;5055093;28;20069;-35
2023/01/17 05:11:39;;;;;;;0.95;0.95;;;1.10;99.90;;;;;;5060995;28;20621;-33
2023/01/17 05:14:05;;;;;;;1.58;1.02;;;1.00;99.90;;;;;;5055597;28;20033;-39
2023/01/17 05:16:31;;;;;;;1.88;1.20;;;1.10;99.90;;;;;;5056011;28;20073;-37
2023/01/17 05:18:56;;;;;;;1.27;1.27;;;1.10;99.90;;;;;;5059021;28;20044;-36
2023/01/17 05:21:22;;;;;;;1.20;1.08;;;1.10;99.90;;;;;;5057966;28;20520;-37
2023/01/17 05:23:48;;;;;;;1.45;1.10;;;1.10;99.90;;;;;;5057528;28;20037;-38
2023/01/17 05:26:14;;;;;;;2.97;1.27;;;1.10;99.90;;;;;;5055444;28;20031;-38
2023/01/17 05:28:39;;;;;;;1.17;1.10;;;1.10;99.90;;;;;;5082486;28;20043;-39
2023/01/17 05:31:05;;;;;;;1.27;1.08;;;1.10;99.90;;;;;;5057448;28;20036;-35
2023/01/17 05:33:31;;;;;;;1.42;1.20;;;1.10;99.90;;;;;;5060623;28;20032;-37
2023/01/17 05:35:57;;;;;;;1.27;1.17;;;1.10;99.90;;;;;;5054885;28;20038;-38
2023/01/17 05:38:22;;;;;;;1.63;1.52;;;1.00;99.90;;;;;;5058926;28;20028;-37
2023/01/17 05:40:48;;;;;;;1.63;1.17;;;1.10;99.90;;;;;;5059770;28;20592;-38
2023/01/17 05:43:15;;;;;;;1.52;1.20;;;1.00;99.90;;;;;;5067137;28;20063;-38
2023/01/17 05:45:41;;;;;;;1.80;1.30;;;1.00;99.90;;;;;;5042768;28;20066;-36
2023/01/17 05:48:08;;;;;;;2.00;1.42;;;1.00;99.90;;;;;;5058617;28;20028;-36
2023/01/17 05:50:36;;;;;;;1.65;1.35;;;1.00;99.90;;;;;;5059311;28;20034;-37
2023/01/17 05:53:10;;;;;;;5.90;1.75;;;0.90;99.90;;;;;;5064886;28;20060;-39
2023/01/17 05:55:37;;;;;;;1.38;1.27;;;0.80;99.90;;;;;;5059948;28;20589;-36
2023/01/17 05:58:03;;;;;;;1.83;1.52;;;0.60;99.90;;;;;;5061952;28;20024;-33
2023/01/17 06:00:30;;;;;;;2.55;1.65;;;0.60;99.90;;;;;;5058941;28;20563;-37
2023/01/17 06:02:58;;;;;;;1.27;1.20;;;0.60;99.90;;;;;;5063535;28;20036;-37
2023/01/17 06:05:24;;;;;;;2.80;1.40;;;0.60;99.90;;;;;;5067953;28;20060;-37
2023/01/17 06:07:50;;;;;;;1.13;1.13;;;0.50;99.90;;;;;;5063006;28;20563;-36
2023/01/17 06:10:18;;;;;;;1.40;1.30;;;0.40;99.90;;;;;;5060646;28;20028;-34
2023/01/17 06:12:44;;;;;;;2.22;1.52;;;0.40;99.90;;;;;;5057598;28;20864;-37
2023/01/17 06:15:11;;;;;;;1.02;1.02;;;0.40;99.90;;;;;;5062933;28;20491;-37
2023/01/17 06:17:37;;;;;;;1.30;1.25;;;0.30;99.90;;;;;;5061584;28;20035;-38
2023/01/17 06:20:05;;;;;;;1.80;1.70;;;0.30;99.90;;;;;;5056411;28;20554;-38
2023/01/17 06:22:31;;;;;;;2.25;1.50;;;0.30;99.90;;;;;;5063858;28;20036;-37
2023/01/17 06:24:56;;;;;;;1.70;1.60;;;0.30;99.90;;;;;;5063450;28;20377;-40
2023/01/17 06:27:22;;;;;;;1.65;1.63;;;0.30;99.90;;;;;;5061644;28;21214;-39
2023/01/17 06:29:48;;;;;;;3.63;2.92;;;0.30;99.90;;;;;;5067994;28;20043;-37
2023/01/17 06:32:13;;;;;;;4.15;2.75;;;0.30;99.90;;;;;;5071095;28;20025;-37
2023/01/17 06:34:39;;;;;;;4.60;2.92;;;0.20;99.90;;;;;;5070704;28;20107;-36
2023/01/17 06:37:05;;;;;;;3.40;2.28;;;0.30;99.90;;;;;;5078979;28;20024;-39
2023/01/17 06:39:31;;;;;;;3.20;2.90;;;0.20;99.90;;;;;;5072657;28;20042;-39
2023/01/17 06:41:57;;;;;;;9.27;2.97;;;0.30;99.90;;;;;;5088591;28;20485;-38
2023/01/17 06:44:22;;;;;;;6.40;3.10;;;0.20;99.90;;;;;;5071369;28;20044;-36
2023/01/17 06:46:48;;;;;;;5.90;3.42;;;0.20;99.90;;;;;;5079064;28;20032;-38
2023/01/17 06:49:14;;;;;;;8.82;3.38;;;0.20;99.90;;;;;;5056154;28;20098;-39
2023/01/17 06:51:40;;;;;;;2.47;2.28;;;0.20;99.90;;;;;;5070327;28;20024;-36
2023/01/17 06:54:05;;;;;;;5.38;2.42;;;0.20;99.90;;;;;;5090388;28;20106;-38
2023/01/17 06:56:32;;;;;;;2.25;1.98;;;0.10;99.90;;;;;;5083492;28;20063;-34
2023/01/17 06:58:57;;;;;;;2.83;2.20;;;0.10;99.90;;;;;;5075073;28;20032;-38
2023/01/17 07:01:23;;;;;;;1.75;1.65;;;0.00;99.90;;;;;;5084601;28;20512;-39
2023/01/17 07:03:51;;;;;;;2.95;2.35;;;0.00;99.90;;;;;;5076322;28;20034;-38
2023/01/17 07:06:17;;;;;;;2.67;1.70;;;0.00;99.90;;;;;;5087030;28;20039;-38
2023/01/17 07:08:42;;;;;;;2.40;2.20;;;0.00;99.90;;;;;;5095947;28;20093;-39
2023/01/17 07:11:08;;;;;;;2.15;1.92;;;0.00;99.90;;;;;;5073925;28;20082;-36
2023/01/17 07:13:36;;;;;;;2.55;2.20;;;0.00;99.90;;;;;;5077812;28;20028;-39
2023/01/17 07:16:03;;;;;;;1.83;1.48;;;0.00;99.90;;;;;;5080938;28;20028;-38
2023/01/17 07:18:29;;;;;;;1.60;1.50;;;-0.30;99.90;;;;;;5087983;28;20024;-39
2023/01/17 07:20:55;;;;;;;2.45;1.67;;;-0.40;99.90;;;;;;5092051;28;20031;-39
2023/01/17 07:23:22;;;;;;;2.20;1.73;;;-0.40;99.90;;;;;;5087834;28;20028;-39
2023/01/17 07:25:53;;;;;;;2.50;1.75;;;-0.30;99.90;;;;;;5083650;28;20399;-38
2023/01/17 07:28:19;;;;;;;3.85;2.17;;;-0.50;99.90;;;;;;5082625;28;20032;-40
2023/01/17 07:30:45;;;;;;;4.38;3.53;;;-0.70;99.90;;;;;;5093068;28;20031;-45
2023/01/17 07:33:10;;;;;;;4.00;3.70;;;-0.80;99.90;;;;;;5080004;28;20381;-40
2023/01/17 07:35:37;;;;;;;4.78;3.60;;;-0.90;99.90;;;;;;5090793;28;20045;-40
2023/01/17 07:38:04;;;;;;;5.22;2.63;;;-0.80;99.90;;;;;;5091302;28;20036;-40
2023/01/17 07:40:30;;;;;;;4.22;3.00;;;-0.80;99.90;;;;;;5086730;28;20028;-41
2023/01/17 07:43:12;;;;;;;3.33;2.00;;;-0.70;99.90;;;;;;5085647;28;20032;-39
2023/01/17 07:45:43;;;;;;;2.70;2.20;;;-0.70;99.90;;;;;;5083596;28;20027;-40
2023/01/17 07:48:10;;;;;;;1.92;1.88;;;-0.70;99.90;;;;;;5086831;28;20032;-40
2023/01/17 07:50:36;;;;;;;2.58;2.10;;;-0.60;99.90;;;;;;5087420;28;20767;-40
2023/01/17 07:53:02;;;;;;;1.80;1.70;;;-0.60;99.90;;;;;;5095044;28;20111;-39
2023/01/17 07:55:28;;;;;;;3.03;2.80;;;-0.60;99.90;;;;;;5081912;28;20078;-40
2023/01/17 07:57:54;;;;;;;4.60;2.45;;;-0.60;99.90;;;;;;5079914;28;20044;-40
2023/01/17 08:00:21;;;;;;;2.45;2.15;;;-0.70;99.90;;;;;;5071649;28;20487;-40
2023/01/17 08:02:47;;;;;;;3.35;2.05;;;-0.70;99.90;;;;;;5097638;28;20090;-39
2023/01/17 08:05:13;;;;;;;2.15;1.85;;;-0.70;99.90;;;;;;5092604;28;20769;-38
2023/01/17 08:07:39;;;;;;;2.03;1.92;;;-0.60;99.90;;;;;;5079971;28;20044;-40
2023/01/17 08:10:06;;;;;;;2.05;1.95;;;-0.60;99.90;;;;;;5080619;28;20031;-38
2023/01/17 08:12:32;;;;;;;3.38;2.50;;;-0.50;99.90;;;;;;5090347;28;20027;-36
2023/01/17 08:14:58;;;;;;;1.88;1.80;;;-0.50;99.90;;;;;;5085835;28;20090;-40
2023/01/17 08:17:24;;;;;;;3.42;2.20;;;-0.50;99.90;;;;;;5090539;28;20027;-39
2023/01/17 08:19:51;;;;;;;4.00;2.60;;;-0.50;99.90;;;;;;5080266;28;20035;-40
2023/01/17 08:22:17;;;;;;;2.67;2.40;;;-0.50;99.90;;;;;;5083254;28;20039;-40
2023/01/17 08:24:43;;;;;;;2.45;2.10;;;-0.50;99.90;;;;;;5087564;28;20781;-39
2023/01/17 08:27:09;;;;;;;3.22;2.00;;;-0.50;99.90;;;;;;5089110;28;20038;-39
2023/01/17 08:29:35;;;;;;;5.32;2.13;;;-0.40;99.90;;;;;;5090143;28;20032;-40
2023/01/17 08:32:02;;;;;;;2.30;2.15;;;-0.40;99.90;;;;;;5081614;28;20108;-39
2023/01/17 08:34:27;;;;;;;1.65;1.55;;;-0.30;99.90;;;;;;5082716;28;20021;-38
2023/01/17 08:36:53;;;;;;;1.92;1.75;;;-0.30;99.90;;;;;;5087917;28;20028;-39
2023/01/17 08:39:20;;;;;;;2.15;2.05;;;-0.30;99.90;;;;;;5083499;28;20113;-40
2023/01/17 08:41:45;;;;;;;2.60;2.40;;;-0.20;99.90;;;;;;5077731;28;20027;-39
2023/01/17 08:44:12;;;;;;;2.92;2.67;;;-0.10;99.90;;;;;;5089746;28;20033;-40
2023/01/17 08:46:38;;;;;;;3.95;2.72;;;-0.10;99.90;;;;;;5064095;28;20035;-39
2023/01/17 08:49:04;;;;;;;3.35;2.33;;;0.00;99.90;;;;;;5091084;28;20039;-39
2023/01/17 08:51:31;;;;;;;6.75;2.60;;;0.00;99.90;;;;;;5077146;28;20036;-39
2023/01/17 08:53:57;;;;;;;2.55;2.10;;;0.10;99.90;;;;;;5089110;28;20024;-40
2023/01/17 08:56:23;;;;;;;4.20;2.38;;;0.10;99.90;;;;;;5082363;28;20396;-40
2023/01/17 08:58:48;;;;;;;6.45;2.83;;;0.10;99.90;;;;;;5083895;28;20521;-40
2023/01/17 09:01:14;;;;;;;5.03;2.10;;;0.10;99.90;;;;;;5083414;28;20043;-38
2023/01/17 09:03:40;;;;;;;3.30;2.67;;;0.20;99.90;;;;;;5087111;28;20032;-38
2023/01/17 09:06:12;;;;;;;2.85;2.00;;;0.30;99.90;;;;;;5085284;28;20181;-39
2023/01/17 09:08:38;;;;;;;2.22;2.05;;;0.40;99.90;;;;;;5055922;28;20351;-37
2023/01/17 09:11:06;;;;;;;2.53;2.17;;;0.40;99.90;;;;;;5058101;28;20453;-40
2023/01/17 09:13:31;;;;;;;1.70;1.60;;;0.50;99.90;;;;;;5058465;28;20485;-38
2023/01/17 09:15:58;;;;;;;3.38;2.00;;;0.50;99.90;;;;;;5061488;28;20032;-40
2023/01/17 09:18:28;;;;;;;6.40;1.95;;;0.60;99.90;;;;;;5059620;28;20031;-40
2023/01/17 09:20:58;;;;;;;2.13;2.00;;;0.70;99.90;;;;;;5061217;28;20036;-40
2023/01/17 09:23:28;;;;;;;1.83;1.73;;;0.70;99.90;;;;;;5044195;28;20035;-39
2023/01/17 09:25:58;;;;;;;4.05;1.73;;;0.80;99.90;;;;;;5045195;28;20033;-40
2023/01/17 09:28:25;;;;;;;2.72;2.40;;;0.80;99.90;;;;;;5060914;28;20472;-38
2023/01/17 09:30:52;;;;;;;4.20;2.30;;;0.90;99.90;;;;;;5063765;28;20397;-40
2023/01/17 09:33:18;;;;;;;2.00;1.90;;;0.80;99.90;;;;;;5063649;28;20025;-38
2023/01/17 09:35:45;;;;;;;2.03;1.90;;;0.80;99.90;;;;;;5059455;28;20523;-40
2023/01/17 09:38:11;;;;;;;2.42;2.15;;;0.80;99.90;;;;;;5055445;28;20032;-40
2023/01/17 09:40:43;;;;;;;4.18;2.25;;;0.80;99.90;;;;;;5054889;28;20037;-36
2023/01/17 09:43:22;;;;;;;2.30;2.10;;;0.80;99.90;;;;;;5061612;28;20032;-40
2023/01/17 09:45:48;;;;;;;2.70;2.47;;;0.80;99.90;;;;;;5055620;28;20047;-39
2023/01/17 09:48:23;;;;;;;4.55;2.80;;;0.90;99.90;;;;;;5063089;28;20029;-39
2023/01/17 09:50:53;;;;;;;3.28;2.92;;;0.90;99.90;;;;;;5064497;28;20405;-39
2023/01/17 09:53:20;;;;;;;5.25;3.28;;;1.00;99.90;;;;;;5054531;28;20016;-40
2023/01/17 09:55:53;;;;;;;3.80;2.97;;;1.10;99.90;;;;;;5061309;28;20037;-39
2023/01/17 09:58:22;;;;;;;4.30;3.22;;;1.10;99.90;;;;;;5060378;28;20031;-39
2023/01/17 10:01:08;;;;;;;3.95;3.42;;;1.20;99.90;;;;;;5056326;28;20040;-40
2023/01/17 10:04:22;;;;;;;4.57;3.40;;;1.30;99.90;;;;;;5060498;28;20435;-39
2023/01/17 10:07:09;;;;;;;5.18;2.95;;;1.30;99.90;;;;;;5059304;28;20513;-40
2023/01/17 10:09:44;;;;;;;5.50;3.15;;;1.40;99.90;;;;;;5057905;28;20082;-37
2023/01/17 10:12:12;;;;;;;3.67;2.78;;;1.50;99.90;;;;;;5062908;28;20021;-40
2023/01/17 10:15:23;;;;;;;4.22;3.53;;;1.50;99.90;;;;;;5084570;28;20133;-37
2023/01/17 10:18:07;;;;;;;4.47;2.80;;;1.70;99.90;;;;;;5051346;28;20024;-40
2023/01/17 10:20:52;;;;;;;4.53;2.58;;;1.80;99.90;;;;;;5091157;28;20024;-39
2023/01/17 10:23:27;;;;;;;2.90;2.60;;;1.90;99.90;;;;;;5095586;28;20488;-38
2023/01/17 10:26:01;;;;;;;6.05;2.55;;;1.90;99.90;;;;;;5085368;28;20028;-39
2023/01/17 10:28:47;;;;;;;3.22;2.78;;;1.90;99.90;;;;;;5082068;28;20028;-39
2023/01/17 10:31:23;;;;;;;8.48;3.00;;;2.00;99.90;;;;;;5087531;28;20551;-39
2023/01/17 10:33:57;;;;;;;3.33;2.65;;;2.10;99.90;;;;;;5082306;28;20031;-38
2023/01/17 10:36:26;;;;;;;3.05;2.70;;;2.10;99.90;;;;;;5089132;28;20528;-40
2023/01/17 10:38:56;;;;;;;2.45;2.25;;;2.10;99.90;;;;;;5086736;28;20028;-39
2023/01/17 10:41:33;;;;;;;2.42;2.25;;;2.10;99.90;;;;;;5081885;28;20032;-40
2023/01/17 10:44:09;;;;;;;2.63;2.40;;;2.00;99.90;;;;;;5088814;28;20023;-40
2023/01/17 10:46:41;;;;;;;2.53;2.33;;;2.00;99.90;;;;;;5086380;28;20028;-40
2023/01/17 10:49:25;;;;;;;1.90;1.80;;;2.00;99.90;;;;;;5081765;28;20047;-40
2023/01/17 10:52:15;;;;;;;2.20;2.00;;;2.10;99.90;;;;;;5074555;28;20080;-39
2023/01/17 10:55:14;;;;;;;2.00;1.80;;;2.10;99.90;;;;;;5086716;28;20035;-40
2023/01/17 10:57:46;;;;;;;1.75;1.50;;;2.10;99.90;;;;;;5078787;28;20503;-39
2023/01/17 11:00:38;;;;;;;1.85;1.70;;;2.20;99.90;;;;;;5080241;28;20635;-40
2023/01/17 11:03:05;;;;;;;1.55;1.40;;;2.20;99.90;;;;;;5061621;28;20036;-38
2023/01/17 11:05:35;;;;;;;1.40;1.30;;;2.20;99.90;;;;;;5090641;28;20046;-39
2023/01/17 11:08:05;;;;;;;3.42;1.60;;;2.20;99.90;;;;;;5068427;28;20096;-40
2023/01/17 11:10:54;;;;;;;1.50;1.40;;;2.20;99.90;;;;;;5066871;28;20036;-40
2023/01/17 11:13:37;;;;;;;1.52;1.42;;;2.30;99.90;;;;;;5086918;28;20050;-40
2023/01/17 11:16:09;;;;;;;1.23;1.13;;;2.20;99.90;;;;;;5070332;28;20082;-39
2023/01/17 11:18:37;;;;;;;1.30;1.20;;;2.20;99.90;;;;;;5090014;28;20056;-39
2023/01/17 11:21:20;;;;;;;1.33;1.13;;;2.20;99.90;;;;;;5081326;28;20032;-38
2023/01/17 11:23:56;;;;;;;1.20;1.20;;;2.20;98.40;;;;;;5092314;28;20544;-39
2023/01/17 11:26:26;;;;;;;1.10;1.10;;;2.20;98.60;;;;;;5086997;28;20034;-37
2023/01/17 11:29:27;;;;;;;1.00;1.00;;;2.20;96.40;;;;;;5085613;28;20123;-39
2023/01/17 11:31:55;;;;;;;1.95;1.42;;;2.30;97.20;;;;;;5086050;28;20044;-37
2023/01/17 11:34:30;;;;;;;1.77;1.67;;;2.30;98.40;;;;;;5062419;28;20074;-35
2023/01/17 11:37:17;;;;;;;1.88;1.00;;;2.30;99.90;;;;;;5083145;28;20024;-38
2023/01/17 11:39:46;;;;;;;2.05;1.58;;;2.40;99.90;;;;;;5086220;28;20030;-38
2023/01/17 11:43:13;;;;;;;1.70;1.40;;;2.40;99.90;;;;;;5079203;28;20077;-37
2023/01/17 11:45:39;;;;;;;2.78;1.50;;;2.40;99.90;;;;;;5011275;28;20044;-39
2023/01/17 11:48:12;;;;;;;1.27;1.23;;;2.50;99.90;;;;;;5014844;28;20065;-38
2023/01/17 11:50:45;;;;;;;1.27;1.17;;;2.50;99.90;;;;;;5065434;28;20043;-38
2023/01/17 11:53:17;;;;;;;1.98;1.58;;;2.50;99.90;;;;;;5079891;28;20441;-40
2023/01/17 11:56:19;;;;;;;1.58;1.25;;;2.60;99.90;;;;;;5083810;28;20480;-38
2023/01/17 11:58:46;;;;;;;1.67;1.58;;;2.60;99.90;;;;;;5075000;28;20520;-39
2023/01/17 12:01:29;;;;;;;1.60;1.50;;;2.60;99.90;;;;;;5080834;28;20089;-40
2023/01/17 12:04:23;;;;;;;2.35;1.45;;;2.60;99.90;;;;;;5077879;28;20508;-38
2023/01/17 12:06:49;;;;;;;2.17;1.80;;;2.60;99.90;;;;;;5081253;28;20059;-39
2023/01/17 12:09:37;;;;;;;1.55;1.45;;;2.70;99.90;;;;;;5089516;28;20520;-38
2023/01/17 12:15:24;;;;;;;1.50;1.40;;;2.70;99.90;;;;;;5084699;28;20618;-39
2023/01/17 12:18:29;;;;;;;2.10;1.90;;;2.70;95.50;;;;;;5091933;28;20099;-39
2023/01/17 12:21:00;;;;;;;2.75;1.40;;;2.70;96.50;;;;;;5002178;28;20075;-38
2023/01/17 12:23:59;;;;;;;1.60;1.50;;;2.70;97.70;;;;;;5007329;28;20030;-39
2023/01/17 12:26:49;;;;;;;1.60;1.50;;;2.70;99.90;;;;;;5042023;28;20044;-36
2023/01/17 12:29:39;;;;;;;1.42;1.33;;;2.70;99.90;;;;;;5084830;28;20031;-36
2023/01/17 12:32:10;;;;;;;1.70;1.60;;;2.70;99.90;;;;;;5091288;28;20036;-38
2023/01/17 12:34:56;;;;;;;2.15;1.60;;;2.70;99.90;;;;;;5079588;28;20024;-41
2023/01/17 12:37:38;;;;;;;1.60;1.50;;;2.80;99.90;;;;;;5069912;28;20015;-39
2023/01/17 12:40:18;;;;;;;3.25;1.50;;;2.80;99.90;;;;;;5086434;28;20063;-37
2023/01/17 12:42:58;;;;;;;1.40;1.30;;;2.80;99.90;;;;;;5091106;28;20023;-37
2023/01/17 12:45:41;;;;;;;1.90;1.52;;;2.80;99.90;;;;;;5065210;28;20031;-40
2023/01/17 12:48:15;;;;;;;1.50;1.40;;;2.80;99.90;;;;;;5074678;28;20050;-37
2023/01/17 12:50:56;;;;;;;1.60;1.50;;;2.80;99.90;;;;;;5084784;28;20025;-37
2023/01/17 12:53:43;;;;;;;1.65;1.55;;;2.80;99.90;;;;;;5090638;28;20443;-39
2023/01/17 12:56:34;;;;;;;1.50;1.40;;;2.80;99.90;;;;;;5084325;28;20016;-39
2023/01/17 12:59:23;;;;;;;1.45;1.38;;;2.80;99.90;;;;;;5071559;28;20028;-39
2023/01/17 13:01:56;;;;;;;1.95;1.50;;;2.90;99.90;;;;;;5071584;28;20043;-40
2023/01/17 13:04:40;;;;;;;1.55;1.45;;;2.80;99.90;;;;;;5087016;28;20079;-40
2023/01/17 13:07:20;;;;;;;1.50;1.40;;;2.90;99.90;;;;;;5091680;28;20127;-39
2023/01/17 13:09:57;;;;;;;2.47;1.58;;;2.90;99.50;;;;;;5084926;28;20069;-37
2023/01/17 13:12:27;;;;;;;1.50;1.40;;;2.90;99.90;;;;;;5090144;28;20541;-40
2023/01/17 13:14:54;;;;;;;1.50;1.40;;;2.90;99.90;;;;;;5080152;28;20032;-39
2023/01/17 13:17:48;;;;;;;2.50;1.60;;;2.90;99.90;;;;;;5090523;28;20085;-39
2023/01/17 13:20:39;;;;;;;2.40;1.73;;;2.90;99.90;;;;;;5092794;28;20099;-38
2023/01/17 13:23:15;;;;;;;1.70;1.60;;;2.90;99.90;;;;;;5092207;28;20038;-37
2023/01/17 13:25:48;;;;;;;1.58;1.50;;;2.90;99.90;;;;;;5089564;28;20029;-39
2023/01/17 13:28:35;;;;;;;1.80;1.70;;;2.90;99.30;;;;;;5086891;28;20409;-39
2023/01/17 13:31:13;;;;;;;3.15;2.00;;;2.90;99.50;;;;;;5086503;28;20043;-39
2023/01/17 13:34:11;;;;;;;1.42;1.30;;;3.00;99.30;;;;;;5081252;28;20056;-40
2023/01/17 13:36:58;;;;;;;1.60;1.50;;;3.00;99.90;;;;;;5085569;28;20036;-39
2023/01/17 13:39:51;;;;;;;3.08;1.58;;;3.10;99.90;;;;;;5085490;28;20028;-39
2023/01/17 13:42:41;;;;;;;3.25;2.53;;;3.00;99.90;;;;;;5091110;28;20020;-39
2023/01/17 13:45:22;;;;;;;1.90;1.80;;;2.90;99.90;;;;;;5062735;28;20028;-39
2023/01/17 13:47:48;;;;;;;1.42;1.33;;;2.90;99.90;;;;;;5084395;28;20040;-38
2023/01/17 13:50:51;;;;;;;1.20;1.20;;;2.90;99.90;;;;;;5077558;28;20028;-38
2023/01/17 13:53:38;;;;;;;4.07;1.73;;;3.00;99.90;;;;;;5081375;28;20036;-36
2023/01/17 13:56:23;;;;;;;1.35;1.35;;;3.00;99.70;;;;;;5089773;28;20445;-39
2023/01/17 13:58:50;;;;;;;1.50;1.40;;;3.00;99.90;;;;;;5090436;28;20110;-39
2023/01/17 14:01:48;;;;;;;1.73;1.63;;;3.00;99.90;;;;;;5089557;28;20035;-39
2023/01/17 14:04:13;;;;;;;1.60;1.50;;;2.90;99.70;;;;;;5091551;28;20476;-39
2023/01/17 14:06:45;;;;;;;2.88;1.88;;;2.90;99.70;;;;;;5080427;28;20024;-39
2023/01/17 14:09:17;;;;;;;1.70;1.50;;;2.90;98.90;;;;;;5090039;28;20043;-39
2023/01/17 14:12:03;;;;;;;2.63;1.80;;;2.90;97.50;;;;;;5083076;28;20390;-39
2023/01/17 14:14:40;;;;;;;1.50;1.40;;;2.90;98.30;;;;;;5092790;28;20103;-37
2023/01/17 14:17:15;;;;;;;1.60;1.50;;;2.80;98.90;;;;;;5084791;28;20035;-39
2023/01/17 14:19:46;;;;;;;1.73;1.52;;;2.80;99.40;;;;;;5089213;28;20028;-42
2023/01/17 14:22:17;;;;;;;2.08;1.38;;;2.80;99.00;;;;;;5089433;28;20089;-40
2023/01/17 14:25:16;;;;;;;2.03;1.70;;;2.80;98.60;;;;;;5101737;28;20390;-40
2023/01/17 14:27:41;;;;;;;2.50;1.75;;;2.80;98.20;;;;;;5090673;28;20032;-39
2023/01/17 14:30:17;;;;;;;1.92;1.67;;;2.80;99.20;;;;;;5074032;28;20043;-38
2023/01/17 14:32:57;;;;;;;2.63;1.98;;;2.70;98.40;;;;;;5080596;28;20028;-40
2023/01/17 14:35:26;;;;;;;3.30;1.88;;;2.80;99.00;;;;;;5064603;28;20023;-35
2023/01/17 14:37:53;;;;;;;2.03;1.83;;;2.70;99.40;;;;;;5081586;28;20028;-39
2023/01/17 14:40:29;;;;;;;1.60;1.50;;;2.70;99.70;;;;;;5083455;28;20028;-37
2023/01/17 14:43:11;;;;;;;4.50;2.00;;;2.70;99.90;;;;;;5091099;28;20394;-40
2023/01/17 14:45:37;;;;;;;3.95;1.88;;;2.70;99.90;;;;;;5096065;28;20023;-40